Time,TemperatureF,DewpointF,PressureIn,WindDirection,WindDirectionDegrees,WindSpeedMPH,WindSpeedGustMPH,Humidity,HourlyPrecipIn,Conditions,Clouds,dailyrainin,SolarRadiationWatts/m^2,SoftwareType,DateUTC
2013-03-09 00:06:00,55.0,52.4,29.74,WSW,244,8.0,13.0,91,0.00,,,0.00,0,Wunderground v.1.15,2013-03-08 23:06:00,
2013-03-09 00:12:00,55.1,52.5,29.74,WSW,244,10.0,13.0,91,0.00,,,0.00,0,Wunderground v.1.15,2013-03-08 23:12:00,
2013-03-09 00:18:00,55.2,52.6,29.74,West,263,12.0,14.0,91,0.00,,,0.00,0,Wunderground v.1.15,2013-03-08 23:18:00,
2013-03-09 00:26:00,55.2,52.6,29.74,WSW,248,13.0,16.0,91,0.00,,,0.00,0,Wunderground v.1.15,2013-03-08 23:26:00,
2013-03-09 00:32:00,55.3,52.7,29.73,WSW,240,13.0,14.0,91,0.00,,,0.00,0,Wunderground v.1.15,2013-03-08 23:32:00,
2013-03-09 00:38:00,55.3,52.7,29.73,WSW,242,12.0,16.0,91,0.00,,,0.00,0,Wunderground v.1.15,2013-03-08 23:38:00,
2013-03-09 00:46:00,55.3,52.7,29.73,West,259,11.0,16.0,91,0.00,,,0.00,0,Wunderground v.1.15,2013-03-08 23:46:00,
2013-03-09 00:52:00,55.2,52.6,29.73,WSW,242,11.0,12.0,91,0.00,,,0.00,0,Wunderground v.1.15,2013-03-08 23:52:00,
2013-03-09 00:58:00,55.1,52.5,29.73,WSW,246,10.0,12.0,91,0.00,,,0.00,0,Wunderground v.1.15,2013-03-08 23:58:00,
2013-03-09 01:06:00,55.1,52.5,29.73,WSW,246,8.0,9.0,91,0.00,,,0.00,0,Wunderground v.1.15,2013-03-09 00:06:00,
2013-03-09 01:12:00,55.1,52.5,29.73,WSW,240,9.0,11.0,91,0.00,,,0.00,0,Wunderground v.1.15,2013-03-09 00:12:00,
2013-03-09 01:18:00,55.1,52.5,29.73,WSW,250,9.0,11.0,91,0.00,,,0.00,0,Wunderground v.1.15,2013-03-09 00:18:00,
2013-03-09 01:26:00,55.1,52.5,29.73,WSW,257,10.0,14.0,91,0.00,,,0.00,0,Wunderground v.1.15,2013-03-09 00:26:00,
2013-03-09 01:32:00,55.0,52.4,29.73,WSW,250,10.0,10.0,91,0.00,,,0.00,0,Wunderground v.1.15,2013-03-09 00:32:00,
2013-03-09 01:38:00,54.9,52.3,29.73,WSW,254,8.0,10.0,91,0.00,,,0.00,0,Wunderground v.1.15,2013-03-09 00:38:00,
2013-03-09 01:46:00,54.8,52.2,29.72,WSW,249,7.0,9.0,91,0.00,,,0.00,0,Wunderground v.1.15,2013-03-09 00:46:00,
2013-03-09 01:52:00,54.8,52.2,29.72,WSW,248,7.0,10.0,91,0.00,,,0.00,0,Wunderground v.1.15,2013-03-09 00:52:00,
2013-03-09 01:58:00,54.6,52.0,29.72,WSW,249,7.0,10.0,91,0.00,,,0.00,0,Wunderground v.1.15,2013-03-09 00:58:00,
2013-03-09 02:06:00,54.3,51.7,29.72,WSW,253,4.0,6.0,91,0.00,,,0.00,0,Wunderground v.1.15,2013-03-09 01:06:00,
2013-03-09 02:12:00,54.2,51.9,29.71,WSW,254,4.0,5.0,92,0.00,,,0.00,0,Wunderground v.1.15,2013-03-09 01:12:00,
2013-03-09 02:18:00,54.2,51.9,29.71,WSW,253,4.0,7.0,92,0.00,,,0.00,0,Wunderground v.1.15,2013-03-09 01:18:00,
2013-03-09 02:26:00,54.2,51.9,29.71,WSW,250,6.0,8.0,92,0.00,,,0.00,0,Wunderground v.1.15,2013-03-09 01:26:00,
2013-03-09 02:32:00,54.2,51.9,29.71,West,259,7.0,7.0,92,0.00,,,0.00,0,Wunderground v.1.15,2013-03-09 01:32:00,
2013-03-09 02:38:00,54.2,51.9,29.71,WSW,257,6.0,7.0,92,0.00,,,0.00,0,Wunderground v.1.15,2013-03-09 01:38:00,
2013-03-09 02:46:00,54.2,51.9,29.71,WSW,246,6.0,8.0,92,0.00,,,0.00,0,Wunderground v.1.15,2013-03-09 01:46:00,
2013-03-09 02:52:00,54.2,51.9,29.70,WSW,254,6.0,7.0,92,0.00,,,0.00,0,Wunderground v.1.15,2013-03-09 01:52:00,
2013-03-09 02:58:00,54.1,51.8,29.71,WSW,253,5.0,7.0,92,0.00,,,0.00,0,Wunderground v.1.15,2013-03-09 01:58:00,
2013-03-09 03:06:00,54.0,51.7,29.71,WSW,246,6.0,8.0,92,0.00,,,0.00,0,Wunderground v.1.15,2013-03-09 02:06:00,
2013-03-09 03:12:00,53.8,51.5,29.70,WSW,238,7.0,8.0,92,0.00,,,0.00,0,Wunderground v.1.15,2013-03-09 02:12:00,
2013-03-09 03:18:00,53.7,51.4,29.71,SW,219,6.0,8.0,92,0.00,,,0.00,0,Wunderground v.1.15,2013-03-09 02:18:00,
2013-03-09 03:26:00,53.9,51.6,29.70,SW,236,4.0,6.0,92,0.00,,,0.00,0,Wunderground v.1.15,2013-03-09 02:26:00,
2013-03-09 03:32:00,53.9,51.6,29.70,WSW,242,4.0,6.0,92,0.00,,,0.00,0,Wunderground v.1.15,2013-03-09 02:32:00,
2013-03-09 03:38:00,53.9,51.6,29.70,WSW,245,3.0,6.0,92,0.00,,,0.00,0,Wunderground v.1.15,2013-03-09 02:38:00,
2013-03-09 03:46:00,53.9,51.6,29.70,WSW,249,2.0,3.0,92,0.00,,,0.00,0,Wunderground v.1.15,2013-03-09 02:46:00,
2013-03-09 03:52:00,53.8,51.5,29.70,WSW,250,1.0,3.0,92,0.00,,,0.00,0,Wunderground v.1.15,2013-03-09 02:52:00,
2013-03-09 03:58:00,53.7,51.4,29.69,SSW,207,1.0,5.0,92,0.00,,,0.00,0,Wunderground v.1.15,2013-03-09 02:58:00,
2013-03-09 04:06:00,53.5,51.2,29.69,SSW,192,2.0,2.0,92,0.00,,,0.00,0,Wunderground v.1.15,2013-03-09 03:06:00,
2013-03-09 04:12:00,53.4,51.1,29.69,SSW,193,0.0,1.0,92,0.00,,,0.00,0,Wunderground v.1.15,2013-03-09 03:12:00,
2013-03-09 04:18:00,53.3,51.0,29.69,SSW,194,1.0,5.0,92,0.00,,,0.00,0,Wunderground v.1.15,2013-03-09 03:18:00,
2013-03-09 04:26:00,53.3,51.0,29.69,WSW,238,5.0,5.0,92,0.00,,,0.00,0,Wunderground v.1.15,2013-03-09 03:26:00,
2013-03-09 04:32:00,53.3,51.0,29.68,WSW,238,4.0,4.0,92,0.00,,,0.00,0,Wunderground v.1.15,2013-03-09 03:32:00,
2013-03-09 04:38:00,53.2,50.9,29.68,WSW,245,4.0,7.0,92,0.00,,,0.00,0,Wunderground v.1.15,2013-03-09 03:38:00,
2013-03-09 04:46:00,53.4,51.1,29.68,SW,222,9.0,11.0,92,0.00,,,0.00,0,Wunderground v.1.15,2013-03-09 03:46:00,
2013-03-09 04:52:00,54.7,52.4,29.68,WSW,250,10.0,13.0,92,0.00,,,0.00,0,Wunderground v.1.15,2013-03-09 03:52:00,
2013-03-09 04:58:00,55.9,53.0,29.68,West,269,12.0,16.0,90,0.00,,,0.00,0,Wunderground v.1.15,2013-03-09 03:58:00,
2013-03-09 05:06:00,59.3,53.5,29.67,West,273,15.0,15.0,81,0.00,,,0.00,0,Wunderground v.1.15,2013-03-09 04:06:00,
2013-03-09 05:12:00,60.5,51.8,29.67,NW,307,16.0,19.0,73,0.00,,,0.00,0,Wunderground v.1.15,2013-03-09 04:12:00,
2013-03-09 05:18:00,60.8,50.2,29.68,WNW,286,14.0,19.0,68,0.00,,,0.00,0,Wunderground v.1.15,2013-03-09 04:18:00,
2013-03-09 05:26:00,61.3,47.3,29.67,West,270,13.0,31.0,60,0.00,,,0.00,0,Wunderground v.1.15,2013-03-09 04:26:00,
2013-03-09 05:32:00,61.2,46.8,29.68,West,268,14.0,20.0,59,0.00,,,0.00,0,Wunderground v.1.15,2013-03-09 04:32:00,
2013-03-09 05:38:00,61.3,46.8,29.67,West,273,14.0,20.0,59,0.00,,,0.00,0,Wunderground v.1.15,2013-03-09 04:38:00,
2013-03-09 05:46:00,60.8,46.4,29.68,West,271,10.0,13.0,59,0.00,,,0.00,0,Wunderground v.1.15,2013-03-09 04:46:00,
2013-03-09 05:52:00,60.5,47.0,29.67,WNW,284,11.0,13.0,61,0.00,,,0.00,0,Wunderground v.1.15,2013-03-09 04:52:00,
2013-03-09 05:58:00,60.4,46.4,29.68,WSW,256,10.0,13.0,60,0.00,,,0.00,0,Wunderground v.1.15,2013-03-09 04:58:00,
2013-03-09 06:00:00,60.4,46.4,29.68,West,281,9.0,9.0,60,0.00,,,0.00,0,Wunderground v.1.15,2013-03-09 05:00:00,
2013-03-09 06:02:00,60.4,46.0,29.68,West,281,9.0,11.0,59,0.00,,,0.00,0,Wunderground v.1.15,2013-03-09 05:02:00,
2013-03-09 06:08:00,60.7,45.4,29.68,West,281,7.0,11.0,57,0.00,,,0.00,0,Wunderground v.1.15,2013-03-09 05:08:00,
2013-03-09 06:10:00,60.8,45.0,29.68,NW,308,7.0,7.0,56,0.00,,,0.00,0,Wunderground v.1.15,2013-03-09 05:10:00,
2013-03-09 06:16:00,61.0,45.2,29.69,NW,317,5.0,7.0,56,0.00,,,0.00,0,Wunderground v.1.15,2013-03-09 05:16:00,
2013-03-09 06:22:00,61.3,45.5,29.69,WNW,296,7.0,13.0,56,0.00,,,0.00,0,Wunderground v.1.15,2013-03-09 05:22:00,
2013-03-09 06:28:00,60.8,45.9,29.69,WNW,302,5.0,13.0,58,0.00,,,0.00,0,Wunderground v.1.15,2013-03-09 05:28:00,
2013-03-09 06:34:00,60.0,46.5,29.69,NW,304,2.0,3.0,61,0.00,,,0.00,0,Wunderground v.1.15,2013-03-09 05:34:00,
2013-03-09 06:40:00,58.9,47.2,29.69,North,5,3.0,3.0,65,0.00,,,0.00,0,Wunderground v.1.15,2013-03-09 05:40:00,
2013-03-09 06:46:00,57.9,47.4,29.69,North,5,2.0,3.0,68,0.00,,,0.00,0,Wunderground v.1.15,2013-03-09 05:46:00,
2013-03-09 06:52:00,57.0,47.3,29.69,WSW,250,3.0,3.0,70,0.00,,,0.00,0,Wunderground v.1.15,2013-03-09 05:52:00,
2013-03-09 06:58:00,58.0,46.7,29.69,NNW,338,4.0,5.0,66,0.00,,,0.00,0,Wunderground v.1.15,2013-03-09 05:58:00,
2013-03-09 07:06:00,57.8,46.9,29.69,NNW,342,4.0,4.0,67,0.00,,,0.00,0,Wunderground v.1.15,2013-03-09 06:06:00,
2013-03-09 07:12:00,56.8,47.1,29.69,NNW,341,2.0,3.0,70,0.00,,,0.00,5,Wunderground v.1.15,2013-03-09 06:12:00,
2013-03-09 07:18:00,55.7,46.4,29.69,East,86,3.0,6.0,71,0.00,,,0.00,11,Wunderground v.1.15,2013-03-09 06:18:00,
2013-03-09 07:26:00,55.0,46.5,29.69,East,96,4.0,9.0,73,0.00,,,0.00,14,Wunderground v.1.15,2013-03-09 06:26:00,
2013-03-09 07:32:00,54.9,46.8,29.70,East,79,3.0,7.0,74,0.00,,,0.00,18,Wunderground v.1.15,2013-03-09 06:32:00,
2013-03-09 07:38:00,54.6,46.5,29.70,East,95,5.0,9.0,74,0.00,,,0.00,26,Wunderground v.1.15,2013-03-09 06:38:00,
2013-03-09 07:46:00,55.3,47.5,29.70,ESE,111,7.0,8.0,75,0.00,,,0.00,63,Wunderground v.1.15,2013-03-09 06:46:00,
2013-03-09 07:52:00,56.5,47.9,29.70,SE,144,5.0,6.0,73,0.00,,,0.00,83,Wunderground v.1.15,2013-03-09 06:52:00,
2013-03-09 07:58:00,57.7,48.4,29.71,SE,133,4.0,8.0,71,0.00,,,0.00,104,Wunderground v.1.15,2013-03-09 06:58:00,
2013-03-09 08:06:00,58.6,48.1,29.71,SE,132,4.0,6.0,68,0.00,,,0.00,135,Wunderground v.1.15,2013-03-09 07:06:00,
2013-03-09 08:12:00,59.1,47.7,29.71,SE,132,3.0,4.0,66,0.00,,,0.00,160,Wunderground v.1.15,2013-03-09 07:12:00,
2013-03-09 08:18:00,59.8,48.0,29.72,SE,133,2.0,6.0,65,0.00,,,0.00,183,Wunderground v.1.15,2013-03-09 07:18:00,
2013-03-09 08:26:00,60.4,47.7,29.72,SE,140,3.0,3.0,63,0.00,,,0.00,213,Wunderground v.1.15,2013-03-09 07:26:00,
2013-03-09 08:32:00,61.0,48.3,29.72,SE,140,2.0,3.0,63,0.00,,,0.00,236,Wunderground v.1.15,2013-03-09 07:32:00,
2013-03-09 08:38:00,61.5,47.9,29.72,SE,129,3.0,5.0,61,0.00,,,0.00,255,Wunderground v.1.15,2013-03-09 07:38:00,
2013-03-09 08:46:00,62.1,48.0,29.72,SE,138,3.0,7.0,60,0.00,,,0.00,285,Wunderground v.1.15,2013-03-09 07:46:00,
2013-03-09 08:52:00,62.4,48.3,29.72,SSE,148,3.0,3.0,60,0.00,,,0.00,301,Wunderground v.1.15,2013-03-09 07:52:00,
2013-03-09 08:58:00,62.9,48.8,29.72,SE,128,4.0,7.0,60,0.00,,,0.00,320,Wunderground v.1.15,2013-03-09 07:58:00,
2013-03-09 09:04:00,63.1,49.0,29.73,SE,125,5.0,7.0,60,0.00,,,0.00,341,Wunderground v.1.15,2013-03-09 08:04:00,
2013-03-09 09:10:00,63.3,48.3,29.73,SE,125,4.0,4.0,58,0.00,,,0.00,359,Wunderground v.1.15,2013-03-09 08:10:00,
2013-03-09 09:16:00,63.7,48.6,29.73,SE,124,3.0,4.0,58,0.00,,,0.00,380,Wunderground v.1.15,2013-03-09 08:16:00,
2013-03-09 09:22:00,64.1,48.5,29.73,SE,124,2.0,2.0,57,0.00,,,0.00,399,Wunderground v.1.15,2013-03-09 08:22:00,
2013-03-09 09:28:00,64.9,49.3,29.74,ESE,123,1.0,7.0,57,0.00,,,0.00,420,Wunderground v.1.15,2013-03-09 08:28:00,
2013-03-09 09:36:00,65.2,48.6,29.74,ESE,116,5.0,5.0,55,0.00,,,0.00,445,Wunderground v.1.15,2013-03-09 08:36:00,
2013-03-09 09:42:00,65.4,48.3,29.74,ESE,115,4.0,9.0,54,0.00,,,0.00,459,Wunderground v.1.15,2013-03-09 08:42:00,
2013-03-09 09:48:00,65.5,47.9,29.74,ESE,115,4.0,9.0,53,0.00,,,0.00,476,Wunderground v.1.15,2013-03-09 08:48:00,
2013-03-09 09:56:00,66.1,49.0,29.74,ESE,112,3.0,5.0,54,0.00,,,0.00,499,Wunderground v.1.15,2013-03-09 08:56:00,
2013-03-09 10:02:00,66.3,49.6,29.75,ESE,111,4.0,4.0,55,0.00,,,0.00,517,Wunderground v.1.15,2013-03-09 09:02:00,
2013-03-09 10:08:00,66.6,49.4,29.75,ESE,109,4.0,5.0,54,0.00,,,0.00,529,Wunderground v.1.15,2013-03-09 09:08:00,
2013-03-09 10:16:00,66.8,48.6,29.75,East,100,6.0,7.0,52,0.00,,,0.00,554,Wunderground v.1.15,2013-03-09 09:16:00,
2013-03-09 10:22:00,67.3,49.1,29.75,East,96,4.0,6.0,52,0.00,,,0.00,568,Wunderground v.1.15,2013-03-09 09:22:00,
2013-03-09 10:28:00,67.6,48.8,29.75,East,96,4.0,6.0,51,0.00,,,0.00,582,Wunderground v.1.15,2013-03-09 09:28:00,
2013-03-09 10:36:00,67.7,48.9,29.75,East,94,4.0,11.0,51,0.00,,,0.00,601,Wunderground v.1.15,2013-03-09 09:36:00,
2013-03-09 10:42:00,67.9,49.1,29.75,East,92,5.0,8.0,51,0.00,,,0.00,617,Wunderground v.1.15,2013-03-09 09:42:00,
2013-03-09 10:48:00,68.3,48.4,29.75,East,94,5.0,9.0,49,0.00,,,0.00,631,Wunderground v.1.15,2013-03-09 09:48:00,
2013-03-09 10:56:00,69.0,48.5,29.75,East,94,4.0,7.0,48,0.00,,,0.00,652,Wunderground v.1.15,2013-03-09 09:56:00,
2013-03-09 11:02:00,68.9,47.8,29.75,East,96,2.0,3.0,47,0.00,,,0.00,670,Wunderground v.1.15,2013-03-09 10:02:00,
2013-03-09 11:08:00,68.2,47.2,29.75,ESE,113,3.0,3.0,47,0.00,,,0.00,682,Wunderground v.1.15,2013-03-09 10:08:00,
2013-03-09 11:16:00,68.0,47.6,29.75,ESE,114,2.0,8.0,48,0.00,,,0.00,691,Wunderground v.1.15,2013-03-09 10:16:00,
2013-03-09 11:22:00,68.9,48.9,29.76,ESE,114,3.0,3.0,49,0.00,,,0.00,696,Wunderground v.1.15,2013-03-09 10:22:00,
2013-03-09 11:28:00,69.9,49.3,29.75,ESE,111,3.0,4.0,48,0.00,,,0.00,705,Wunderground v.1.15,2013-03-09 10:28:00,
2013-03-09 11:36:00,69.5,46.6,29.75,SE,129,3.0,5.0,44,0.00,,,0.00,740,Wunderground v.1.15,2013-03-09 10:36:00,
2013-03-09 11:42:00,69.3,47.0,29.75,SE,134,3.0,3.0,45,0.00,,,0.00,802,Wunderground v.1.15,2013-03-09 10:42:00,
2013-03-09 11:48:00,69.0,45.6,29.75,WSW,248,3.0,5.0,43,0.00,,,0.00,295,Wunderground v.1.15,2013-03-09 10:48:00,
2013-03-09 11:56:00,68.9,47.3,29.75,WSW,248,3.0,3.0,46,0.00,,,0.00,838,Wunderground v.1.15,2013-03-09 10:56:00,
2013-03-09 12:02:00,69.6,44.8,29.75,WSW,248,1.0,6.0,41,0.00,,,0.00,819,Wunderground v.1.15,2013-03-09 11:02:00,
2013-03-09 12:08:00,69.5,45.4,29.75,WSW,248,3.0,6.0,42,0.00,,,0.00,842,Wunderground v.1.15,2013-03-09 11:08:00,
2013-03-09 12:16:00,69.9,45.1,29.75,WSW,248,3.0,3.0,41,0.00,,,0.00,803,Wunderground v.1.15,2013-03-09 11:16:00,
2013-03-09 12:22:00,69.2,45.1,29.75,WSW,250,5.0,10.0,42,0.00,,,0.00,777,Wunderground v.1.15,2013-03-09 11:22:00,
2013-03-09 12:28:00,68.2,44.2,29.75,WSW,250,10.0,12.0,42,0.00,,,0.00,775,Wunderground v.1.15,2013-03-09 11:28:00,
2013-03-09 12:38:00,67.3,43.4,29.74,West,261,12.0,16.0,42,0.00,,,0.00,780,Wunderground v.1.15,2013-03-09 11:38:00,
2013-03-09 12:48:00,67.6,44.3,29.74,West,259,10.0,12.0,43,0.00,,,0.00,788,Wunderground v.1.15,2013-03-09 11:48:00,
2013-03-09 12:56:00,67.9,43.3,29.74,WSW,246,11.0,14.0,41,0.00,,,0.00,789,Wunderground v.1.15,2013-03-09 11:56:00,
2013-03-09 13:02:00,67.4,43.5,29.75,West,277,13.0,19.0,42,0.00,,,0.00,772,Wunderground v.1.15,2013-03-09 12:02:00,
2013-03-09 13:08:00,67.5,43.0,29.74,WSW,257,12.0,22.0,41,0.00,,,0.00,782,Wunderground v.1.15,2013-03-09 12:08:00,
2013-03-09 13:20:00,67.4,42.9,29.75,West,267,12.0,12.0,41,0.00,,,0.00,812,Wunderground v.1.15,2013-03-09 12:20:00,
2013-03-09 13:28:00,67.4,41.6,29.74,West,260,14.0,17.0,39,0.00,,,0.00,905,Wunderground v.1.15,2013-03-09 12:28:00,
2013-03-09 13:38:00,66.9,43.0,29.74,WSW,240,14.0,16.0,42,0.00,,,0.00,468,Wunderground v.1.15,2013-03-09 12:38:00,
2013-03-09 13:48:00,67.7,42.5,29.74,West,259,10.0,16.0,40,0.00,,,0.00,823,Wunderground v.1.15,2013-03-09 12:48:00,
2013-03-09 13:56:00,68.4,41.1,29.73,WNW,284,11.0,21.0,37,0.00,,,0.00,986,Wunderground v.1.15,2013-03-09 12:56:00,
2013-03-09 14:02:00,68.5,41.2,29.73,West,279,14.0,14.0,37,0.00,,,0.00,949,Wunderground v.1.15,2013-03-09 13:02:00,
2013-03-09 14:08:00,67.9,40.7,29.73,West,276,14.0,20.0,37,0.00,,,0.00,680,Wunderground v.1.15,2013-03-09 13:08:00,
2013-03-09 14:18:00,67.2,41.4,29.72,West,272,14.0,24.0,39,0.00,,,0.00,454,Wunderground v.1.15,2013-03-09 13:18:00,
2013-03-09 14:30:00,69.2,41.8,29.71,WSW,256,10.0,10.0,37,0.00,,,0.00,974,Wunderground v.1.15,2013-03-09 13:30:00,
2013-03-09 14:36:00,70.3,39.0,29.71,WSW,244,9.0,15.0,32,0.00,,,0.00,907,Wunderground v.1.15,2013-03-09 13:36:00,
2013-03-09 14:42:00,70.8,40.3,29.70,WSW,247,12.0,12.0,33,0.00,,,0.00,895,Wunderground v.1.15,2013-03-09 13:42:00,
2013-03-09 14:48:00,70.9,40.3,29.70,West,264,12.0,12.0,33,0.00,,,0.00,879,Wunderground v.1.15,2013-03-09 13:48:00,
2013-03-09 14:56:00,70.8,41.8,29.69,WSW,254,11.0,19.0,35,0.00,,,0.00,671,Wunderground v.1.15,2013-03-09 13:56:00,
2013-03-09 15:02:00,70.6,43.1,29.70,SW,230,12.0,13.0,37,0.00,,,0.00,613,Wunderground v.1.15,2013-03-09 14:02:00,
2013-03-09 15:08:00,70.1,43.3,29.69,SW,230,12.0,13.0,38,0.00,,,0.00,568,Wunderground v.1.15,2013-03-09 14:08:00,
2013-03-09 15:16:00,69.4,44.0,29.69,WSW,240,16.0,21.0,40,0.00,,,0.00,622,Wunderground v.1.15,2013-03-09 14:16:00,
2013-03-09 15:22:00,69.2,45.1,29.69,WSW,242,17.0,18.0,42,0.00,,,0.00,601,Wunderground v.1.15,2013-03-09 14:22:00,
2013-03-09 15:28:00,69.2,46.4,29.69,WSW,254,17.0,19.0,44,0.00,,,0.00,582,Wunderground v.1.15,2013-03-09 14:28:00,
2013-03-09 15:36:00,68.7,45.9,29.69,WSW,250,20.0,28.0,44,0.00,,,0.00,573,Wunderground v.1.15,2013-03-09 14:36:00,
2013-03-09 15:42:00,68.1,45.9,29.69,WSW,237,21.0,28.0,45,0.00,,,0.00,557,Wunderground v.1.15,2013-03-09 14:42:00,
2013-03-09 15:48:00,67.8,45.7,29.69,WSW,237,21.0,28.0,45,0.00,,,0.00,536,Wunderground v.1.15,2013-03-09 14:48:00,
2013-03-09 15:56:00,67.9,45.2,29.70,WSW,239,19.0,22.0,44,0.00,,,0.00,459,Wunderground v.1.15,2013-03-09 14:56:00,
2013-03-09 16:02:00,67.7,45.0,29.69,WSW,250,17.0,21.0,44,0.00,,,0.00,504,Wunderground v.1.15,2013-03-09 15:02:00,
2013-03-09 16:08:00,67.7,45.6,29.70,WSW,251,17.0,21.0,45,0.00,,,0.00,482,Wunderground v.1.15,2013-03-09 15:08:00,
2013-03-09 16:16:00,67.5,45.4,29.70,WSW,244,18.0,19.0,45,0.00,,,0.00,455,Wunderground v.1.15,2013-03-09 15:16:00,
2013-03-09 16:22:00,67.1,45.6,29.70,SW,229,17.0,19.0,46,0.00,,,0.00,438,Wunderground v.1.15,2013-03-09 15:22:00,
2013-03-09 16:28:00,66.8,45.3,29.70,SW,234,18.0,22.0,46,0.00,,,0.00,418,Wunderground v.1.15,2013-03-09 15:28:00,
2013-03-09 16:36:00,66.6,45.2,29.70,West,259,18.0,18.0,46,0.00,,,0.00,404,Wunderground v.1.15,2013-03-09 15:36:00,
2013-03-09 16:42:00,66.4,45.5,29.70,SW,232,17.0,19.0,47,0.00,,,0.00,373,Wunderground v.1.15,2013-03-09 15:42:00,
2013-03-09 16:48:00,66.2,45.4,29.70,West,263,18.0,19.0,47,0.00,,,0.00,353,Wunderground v.1.15,2013-03-09 15:48:00,
2013-03-09 16:56:00,65.9,46.7,29.70,WSW,257,16.0,18.0,50,0.00,,,0.00,332,Wunderground v.1.15,2013-03-09 15:56:00,
2013-03-09 17:02:00,65.7,47.1,29.70,WSW,254,15.0,19.0,51,0.00,,,0.00,309,Wunderground v.1.15,2013-03-09 16:02:00,
2013-03-09 17:08:00,65.2,48.6,29.71,WSW,237,15.0,19.0,55,0.00,,,0.00,287,Wunderground v.1.15,2013-03-09 16:08:00,
2013-03-09 17:16:00,65.2,48.1,29.71,WSW,249,14.0,18.0,54,0.00,,,0.00,262,Wunderground v.1.15,2013-03-09 16:16:00,
2013-03-09 17:22:00,65.0,46.9,29.71,SW,221,16.0,22.0,52,0.00,,,0.00,241,Wunderground v.1.15,2013-03-09 16:22:00,
2013-03-09 17:28:00,64.9,46.8,29.71,WSW,256,18.0,22.0,52,0.00,,,0.00,223,Wunderground v.1.15,2013-03-09 16:28:00,
2013-03-09 17:36:00,64.5,47.5,29.71,WSW,241,17.0,23.0,54,0.00,,,0.00,197,Wunderground v.1.15,2013-03-09 16:36:00,
2013-03-09 17:42:00,64.1,49.0,29.72,SW,236,17.0,17.0,58,0.00,,,0.00,174,Wunderground v.1.15,2013-03-09 16:42:00,
2013-03-09 17:48:00,63.4,49.7,29.72,SW,234,15.0,17.0,61,0.00,,,0.00,155,Wunderground v.1.15,2013-03-09 16:48:00,
2013-03-09 17:56:00,62.7,49.9,29.73,WSW,253,14.0,15.0,63,0.00,,,0.00,125,Wunderground v.1.15,2013-03-09 16:56:00,
2013-03-09 18:02:00,62.4,50.1,29.73,WSW,239,13.0,14.0,64,0.00,,,0.00,62,Wunderground v.1.15,2013-03-09 17:02:00,
2013-03-09 18:08:00,62.0,50.1,29.73,WSW,246,12.0,15.0,65,0.00,,,0.00,44,Wunderground v.1.15,2013-03-09 17:08:00,
2013-03-09 18:16:00,61.2,49.7,29.73,SW,229,13.0,16.0,66,0.00,,,0.00,33,Wunderground v.1.15,2013-03-09 17:16:00,
2013-03-09 18:22:00,60.5,49.5,29.73,WSW,250,13.0,18.0,67,0.00,,,0.00,42,Wunderground v.1.15,2013-03-09 17:22:00,
2013-03-09 18:28:00,60.3,49.7,29.73,WSW,253,13.0,18.0,68,0.00,,,0.00,30,Wunderground v.1.15,2013-03-09 17:28:00,
2013-03-09 18:36:00,60.0,49.4,29.73,SW,233,12.0,15.0,68,0.00,,,0.00,14,Wunderground v.1.15,2013-03-09 17:36:00,
2013-03-09 18:42:00,59.5,49.3,29.74,WSW,250,11.0,15.0,69,0.00,,,0.00,9,Wunderground v.1.15,2013-03-09 17:42:00,
2013-03-09 18:48:00,59.1,49.7,29.74,WSW,244,10.0,15.0,71,0.00,,,0.00,5,Wunderground v.1.15,2013-03-09 17:48:00,
2013-03-09 18:56:00,58.5,49.5,29.74,WSW,241,10.0,12.0,72,0.00,,,0.00,0,Wunderground v.1.15,2013-03-09 17:56:00,
2013-03-09 19:02:00,58.1,49.9,29.74,WSW,240,10.0,10.0,74,0.00,,,0.00,0,Wunderground v.1.15,2013-03-09 18:02:00,
2013-03-09 19:08:00,57.7,49.8,29.73,WSW,237,9.0,10.0,75,0.00,,,0.00,0,Wunderground v.1.15,2013-03-09 18:08:00,
2013-03-09 19:16:00,57.4,49.9,29.74,WSW,244,8.0,10.0,76,0.00,,,0.00,0,Wunderground v.1.15,2013-03-09 18:16:00,
2013-03-09 19:22:00,57.2,50.1,29.74,WSW,244,7.0,7.0,77,0.00,,,0.00,0,Wunderground v.1.15,2013-03-09 18:22:00,
2013-03-09 19:28:00,57.0,50.2,29.74,WSW,250,6.0,7.0,78,0.00,,,0.00,0,Wunderground v.1.15,2013-03-09 18:28:00,
2013-03-09 19:36:00,56.7,50.6,29.74,WSW,250,6.0,9.0,80,0.00,,,0.00,0,Wunderground v.1.15,2013-03-09 18:36:00,
2013-03-09 19:42:00,56.5,50.7,29.74,WSW,248,7.0,7.0,81,0.00,,,0.00,0,Wunderground v.1.15,2013-03-09 18:42:00,
2013-03-09 19:48:00,56.2,50.8,29.74,WSW,244,7.0,7.0,82,0.00,,,0.00,0,Wunderground v.1.15,2013-03-09 18:48:00,
2013-03-09 19:56:00,56.0,51.2,29.74,WSW,247,8.0,8.0,84,0.00,,,0.00,0,Wunderground v.1.15,2013-03-09 18:56:00,
2013-03-09 20:02:00,55.9,51.1,29.74,WSW,248,7.0,8.0,84,0.00,,,0.00,0,Wunderground v.1.15,2013-03-09 19:02:00,
2013-03-09 20:08:00,55.7,51.3,29.74,WSW,252,8.0,8.0,85,0.00,,,0.00,0,Wunderground v.1.15,2013-03-09 19:08:00,
2013-03-09 20:16:00,55.4,51.3,29.74,WSW,248,7.0,8.0,86,0.00,,,0.00,0,Wunderground v.1.15,2013-03-09 19:16:00,
2013-03-09 20:22:00,55.1,51.0,29.75,WSW,246,7.0,8.0,86,0.00,,,0.00,0,Wunderground v.1.15,2013-03-09 19:22:00,
2013-03-09 20:28:00,54.8,51.0,29.75,WSW,242,8.0,8.0,87,0.00,,,0.00,0,Wunderground v.1.15,2013-03-09 19:28:00,
2013-03-09 20:36:00,54.7,51.2,29.75,WSW,244,8.0,9.0,88,0.00,,,0.00,0,Wunderground v.1.15,2013-03-09 19:36:00,
2013-03-09 20:42:00,54.6,51.1,29.75,WSW,249,9.0,9.0,88,0.00,,,0.00,0,Wunderground v.1.15,2013-03-09 19:42:00,
2013-03-09 20:48:00,54.7,51.5,29.75,WSW,249,10.0,11.0,89,0.00,,,0.00,0,Wunderground v.1.15,2013-03-09 19:48:00,
2013-03-09 20:56:00,54.9,51.7,29.75,WSW,252,9.0,10.0,89,0.00,,,0.00,0,Wunderground v.1.15,2013-03-09 19:56:00,
2013-03-09 21:02:00,54.9,51.7,29.75,WSW,252,8.0,8.0,89,0.00,,,0.00,0,Wunderground v.1.15,2013-03-09 20:02:00,
2013-03-09 21:08:00,54.9,51.7,29.75,WSW,252,7.0,8.0,89,0.00,,,0.00,0,Wunderground v.1.15,2013-03-09 20:08:00,
2013-03-09 21:16:00,54.9,51.7,29.75,WSW,250,8.0,8.0,89,0.00,,,0.00,0,Wunderground v.1.15,2013-03-09 20:16:00,
2013-03-09 21:22:00,55.0,51.8,29.75,WSW,252,8.0,9.0,89,0.00,,,0.00,0,Wunderground v.1.15,2013-03-09 20:22:00,
2013-03-09 21:28:00,54.9,51.7,29.75,WSW,246,9.0,11.0,89,0.00,,,0.00,0,Wunderground v.1.15,2013-03-09 20:28:00,
2013-03-09 21:36:00,54.8,51.6,29.75,WSW,248,9.0,10.0,89,0.00,,,0.00,0,Wunderground v.1.15,2013-03-09 20:36:00,
2013-03-09 21:42:00,54.8,51.6,29.75,WSW,246,8.0,8.0,89,0.00,,,0.00,0,Wunderground v.1.15,2013-03-09 20:42:00,
2013-03-09 21:48:00,54.5,51.3,29.75,WSW,246,7.0,8.0,89,0.00,,,0.00,0,Wunderground v.1.15,2013-03-09 20:48:00,
2013-03-09 21:56:00,54.1,50.9,29.75,WSW,246,5.0,6.0,89,0.00,,,0.00,0,Wunderground v.1.15,2013-03-09 20:56:00,
2013-03-09 22:02:00,54.0,50.8,29.75,WSW,246,6.0,7.0,89,0.00,,,0.00,0,Wunderground v.1.15,2013-03-09 21:02:00,
2013-03-09 22:08:00,54.0,51.1,29.75,WSW,243,7.0,9.0,90,0.00,,,0.00,0,Wunderground v.1.15,2013-03-09 21:08:00,
2013-03-09 22:16:00,53.8,50.9,29.75,WSW,243,7.0,8.0,90,0.00,,,0.00,0,Wunderground v.1.15,2013-03-09 21:16:00,
2013-03-09 22:22:00,53.7,50.8,29.75,WSW,245,8.0,9.0,90,0.00,,,0.00,0,Wunderground v.1.15,2013-03-09 21:22:00,
2013-03-09 22:28:00,53.9,51.0,29.75,WSW,247,8.0,9.0,90,0.00,,,0.00,0,Wunderground v.1.15,2013-03-09 21:28:00,
2013-03-09 22:36:00,54.1,51.2,29.75,WSW,248,6.0,8.0,90,0.00,,,0.00,0,Wunderground v.1.15,2013-03-09 21:36:00,
2013-03-09 22:42:00,54.0,51.1,29.75,West,261,4.0,6.0,90,0.00,,,0.00,0,Wunderground v.1.15,2013-03-09 21:42:00,
2013-03-09 22:48:00,54.0,51.1,29.75,West,261,4.0,6.0,90,0.00,,,0.00,0,Wunderground v.1.15,2013-03-09 21:48:00,
2013-03-09 22:56:00,54.0,51.1,29.75,West,260,4.0,6.0,90,0.00,,,0.00,0,Wunderground v.1.15,2013-03-09 21:56:00,
2013-03-09 23:02:00,54.1,51.2,29.74,West,259,5.0,9.0,90,0.00,,,0.00,0,Wunderground v.1.15,2013-03-09 22:02:00,
2013-03-09 23:08:00,54.2,51.3,29.74,WSW,254,7.0,9.0,90,0.00,,,0.00,0,Wunderground v.1.15,2013-03-09 22:08:00,
2013-03-09 23:16:00,54.2,51.3,29.74,West,268,7.0,8.0,90,0.00,,,0.00,0,Wunderground v.1.15,2013-03-09 22:16:00,
2013-03-09 23:22:00,54.1,51.2,29.73,West,267,5.0,5.0,90,0.00,,,0.00,0,Wunderground v.1.15,2013-03-09 22:22:00,
2013-03-09 23:28:00,53.9,51.0,29.73,West,267,4.0,5.0,90,0.00,,,0.00,0,Wunderground v.1.15,2013-03-09 22:28:00,
2013-03-09 23:36:00,53.7,50.8,29.73,West,267,3.0,4.0,90,0.00,,,0.00,0,Wunderground v.1.15,2013-03-09 22:36:00,
2013-03-09 23:42:00,53.5,50.6,29.73,West,267,2.0,2.0,90,0.00,,,0.00,0,Wunderground v.1.15,2013-03-09 22:42:00,
2013-03-09 23:48:00,53.5,50.6,29.72,West,267,2.0,2.0,90,0.00,,,0.00,0,Wunderground v.1.15,2013-03-09 22:48:00,
2013-03-09 23:56:00,53.5,50.6,29.72,West,267,2.0,5.0,90,0.00,,,0.00,0,Wunderground v.1.15,2013-03-09 22:56:00,